sensor_id;sensor_type;location;lat;lon;timestamp;P1;durP1;ratioP1;P2;durP2;ratioP2
41923;SDS011;27613;48.116;11.656;2022-09-29T00:02:17;2.10;;;1.40;;
41923;SDS011;27613;48.116;11.656;2022-09-29T00:04:43;2.42;;;1.50;;
41923;SDS011;27613;48.116;11.656;2022-09-29T00:07:08;2.55;;;1.88;;
41923;SDS011;27613;48.116;11.656;2022-09-29T00:09:34;2.72;;;1.63;;
41923;SDS011;27613;48.116;11.656;2022-09-29T00:11:59;2.42;;;1.45;;
41923;SDS011;27613;48.116;11.656;2022-09-29T00:14:25;1.98;;;1.40;;
41923;SDS011;27613;48.116;11.656;2022-09-29T00:16:51;2.08;;;1.45;;
41923;SDS011;27613;48.116;11.656;2022-09-29T00:19:17;5.68;;;1.60;;
41923;SDS011;27613;48.116;11.656;2022-09-29T00:21:44;2.60;;;1.58;;
41923;SDS011;27613;48.116;11.656;2022-09-29T00:24:10;2.67;;;1.55;;
41923;SDS011;27613;48.116;11.656;2022-09-29T00:26:36;2.63;;;1.75;;
41923;SDS011;27613;48.116;11.656;2022-09-29T00:29:02;1.42;;;1.30;;
41923;SDS011;27613;48.116;11.656;2022-09-29T00:31:29;2.72;;;1.33;;
41923;SDS011;27613;48.116;11.656;2022-09-29T00:33:57;1.98;;;1.40;;
41923;SDS011;27613;48.116;11.656;2022-09-29T00:36:23;2.10;;;1.38;;
41923;SDS011;27613;48.116;11.656;2022-09-29T00:38:54;3.00;;;1.73;;
41923;SDS011;27613;48.116;11.656;2022-09-29T00:41:25;1.50;;;1.15;;
41923;SDS011;27613;48.116;11.656;2022-09-29T00:43:56;5.95;;;1.48;;
41923;SDS011;27613;48.116;11.656;2022-09-29T00:46:25;2.10;;;1.50;;
41923;SDS011;27613;48.116;11.656;2022-09-29T00:48:56;4.07;;;1.88;;
41923;SDS011;27613;48.116;11.656;2022-09-29T00:51:26;2.47;;;1.50;;
41923;SDS011;27613;48.116;11.656;2022-09-29T00:53:54;21.52;;;2.10;;
41923;SDS011;27613;48.116;11.656;2022-09-29T00:56:21;2.08;;;1.52;;
41923;SDS011;27613;48.116;11.656;2022-09-29T00:58:48;2.70;;;1.70;;
41923;SDS011;27613;48.116;11.656;2022-09-29T01:01:20;3.20;;;1.73;;
41923;SDS011;27613;48.116;11.656;2022-09-29T01:03:47;2.47;;;1.80;;
41923;SDS011;27613;48.116;11.656;2022-09-29T01:06:21;3.88;;;1.88;;
41923;SDS011;27613;48.116;11.656;2022-09-29T01:08:57;3.97;;;1.70;;
41923;SDS011;27613;48.116;11.656;2022-09-29T01:11:26;2.80;;;1.63;;
41923;SDS011;27613;48.116;11.656;2022-09-29T01:13:53;2.75;;;1.40;;
41923;SDS011;27613;48.116;11.656;2022-09-29T01:16:25;2.92;;;1.70;;
41923;SDS011;27613;48.116;11.656;2022-09-29T01:18:51;3.28;;;1.90;;
41923;SDS011;27613;48.116;11.656;2022-09-29T01:24:13;1.58;;;1.27;;
41923;SDS011;27613;48.116;11.656;2022-09-29T01:27:06;3.03;;;1.42;;
41923;SDS011;27613;48.116;11.656;2022-09-29T01:29:50;6.28;;;1.90;;
41923;SDS011;27613;48.116;11.656;2022-09-29T01:35:31;2.88;;;1.40;;
41923;SDS011;27613;48.116;11.656;2022-09-29T01:41:15;3.05;;;1.60;;
41923;SDS011;27613;48.116;11.656;2022-09-29T01:43:49;2.10;;;1.48;;
41923;SDS011;27613;48.116;11.656;2022-09-29T01:46:35;2.92;;;1.77;;
41923;SDS011;27613;48.116;11.656;2022-09-29T01:49:05;3.05;;;1.70;;
41923;SDS011;27613;48.116;11.656;2022-09-29T01:51:37;2.83;;;1.67;;
41923;SDS011;27613;48.116;11.656;2022-09-29T01:54:18;1.77;;;1.45;;
41923;SDS011;27613;48.116;11.656;2022-09-29T01:56:50;3.85;;;1.95;;
41923;SDS011;27613;48.116;11.656;2022-09-29T01:59:22;1.95;;;1.55;;
41923;SDS011;27613;48.116;11.656;2022-09-29T02:02:04;2.33;;;1.80;;
41923;SDS011;27613;48.116;11.656;2022-09-29T02:04:41;2.70;;;1.80;;
41923;SDS011;27613;48.116;11.656;2022-09-29T02:07:18;4.72;;;1.95;;
41923;SDS011;27613;48.116;11.656;2022-09-29T02:09:50;2.83;;;2.00;;
41923;SDS011;27613;48.116;11.656;2022-09-29T02:12:19;2.00;;;1.67;;
41923;SDS011;27613;48.116;11.656;2022-09-29T02:14:49;2.53;;;1.98;;
41923;SDS011;27613;48.116;11.656;2022-09-29T02:17:18;3.85;;;2.42;;
41923;SDS011;27613;48.116;11.656;2022-09-29T02:19:48;2.13;;;1.77;;
41923;SDS011;27613;48.116;11.656;2022-09-29T02:22:16;2.63;;;1.88;;
41923;SDS011;27613;48.116;11.656;2022-09-29T02:24:42;2.80;;;1.80;;
41923;SDS011;27613;48.116;11.656;2022-09-29T02:27:08;3.95;;;2.10;;
41923;SDS011;27613;48.116;11.656;2022-09-29T02:29:35;2.78;;;2.00;;
41923;SDS011;27613;48.116;11.656;2022-09-29T02:32:02;4.13;;;2.20;;
41923;SDS011;27613;48.116;11.656;2022-09-29T02:34:30;2.80;;;2.20;;
41923;SDS011;27613;48.116;11.656;2022-09-29T02:37:14;4.75;;;2.70;;
41923;SDS011;27613;48.116;11.656;2022-09-29T02:39:54;3.45;;;2.15;;
41923;SDS011;27613;48.116;11.656;2022-09-29T02:48:09;2.70;;;2.00;;
41923;SDS011;27613;48.116;11.656;2022-09-29T02:59:00;2.85;;;2.13;;
41923;SDS011;27613;48.116;11.656;2022-09-29T03:01:31;2.70;;;2.03;;
41923;SDS011;27613;48.116;11.656;2022-09-29T03:03:57;3.13;;;2.15;;
41923;SDS011;27613;48.116;11.656;2022-09-29T03:06:23;4.75;;;2.47;;
41923;SDS011;27613;48.116;11.656;2022-09-29T03:08:50;2.17;;;1.83;;
41923;SDS011;27613;48.116;11.656;2022-09-29T03:11:15;2.55;;;1.85;;
41923;SDS011;27613;48.116;11.656;2022-09-29T03:13:41;2.70;;;1.70;;
41923;SDS011;27613;48.116;11.656;2022-09-29T03:16:06;3.08;;;1.95;;
41923;SDS011;27613;48.116;11.656;2022-09-29T03:18:32;2.55;;;1.83;;
41923;SDS011;27613;48.116;11.656;2022-09-29T03:20:57;2.65;;;1.70;;
41923;SDS011;27613;48.116;11.656;2022-09-29T03:23:23;2.33;;;1.80;;
41923;SDS011;27613;48.116;11.656;2022-09-29T03:25:49;2.85;;;2.13;;
41923;SDS011;27613;48.116;11.656;2022-09-29T03:28:14;5.57;;;1.95;;
41923;SDS011;27613;48.116;11.656;2022-09-29T03:30:40;2.45;;;1.90;;
41923;SDS011;27613;48.116;11.656;2022-09-29T03:33:06;2.30;;;1.95;;
41923;SDS011;27613;48.116;11.656;2022-09-29T03:35:31;6.35;;;2.80;;
41923;SDS011;27613;48.116;11.656;2022-09-29T03:38:00;4.28;;;2.78;;
41923;SDS011;27613;48.116;11.656;2022-09-29T03:40:26;2.95;;;2.10;;
41923;SDS011;27613;48.116;11.656;2022-09-29T03:42:52;2.70;;;2.20;;
41923;SDS011;27613;48.116;11.656;2022-09-29T03:45:18;2.45;;;2.05;;
41923;SDS011;27613;48.116;11.656;2022-09-29T03:47:44;2.80;;;2.45;;
41923;SDS011;27613;48.116;11.656;2022-09-29T03:50:09;3.83;;;2.47;;
41923;SDS011;27613;48.116;11.656;2022-09-29T03:52:35;4.32;;;2.30;;
41923;SDS011;27613;48.116;11.656;2022-09-29T03:55:00;3.28;;;2.60;;
41923;SDS011;27613;48.116;11.656;2022-09-29T03:57:26;3.13;;;2.55;;
41923;SDS011;27613;48.116;11.656;2022-09-29T03:59:51;5.82;;;2.70;;
41923;SDS011;27613;48.116;11.656;2022-09-29T04:02:17;2.83;;;2.25;;
41923;SDS011;27613;48.116;11.656;2022-09-29T04:04:43;2.83;;;2.53;;
41923;SDS011;27613;48.116;11.656;2022-09-29T04:07:09;4.38;;;2.20;;
41923;SDS011;27613;48.116;11.656;2022-09-29T04:09:35;4.85;;;2.35;;
41923;SDS011;27613;48.116;11.656;2022-09-29T04:12:01;2.88;;;2.38;;
41923;SDS011;27613;48.116;11.656;2022-09-29T04:14:27;4.22;;;2.83;;
41923;SDS011;27613;48.116;11.656;2022-09-29T04:16:52;3.60;;;3.10;;
41923;SDS011;27613;48.116;11.656;2022-09-29T04:19:18;4.25;;;2.90;;
41923;SDS011;27613;48.116;11.656;2022-09-29T04:21:43;3.97;;;3.10;;
41923;SDS011;27613;48.116;11.656;2022-09-29T04:24:09;4.75;;;3.25;;
41923;SDS011;27613;48.116;11.656;2022-09-29T04:26:35;4.15;;;3.08;;
41923;SDS011;27613;48.116;11.656;2022-09-29T04:29:01;3.75;;;3.05;;
41923;SDS011;27613;48.116;11.656;2022-09-29T04:31:27;5.60;;;3.08;;
41923;SDS011;27613;48.116;11.656;2022-09-29T04:33:52;2.90;;;2.42;;
41923;SDS011;27613;48.116;11.656;2022-09-29T04:36:18;4.35;;;2.83;;
41923;SDS011;27613;48.116;11.656;2022-09-29T04:38:43;4.45;;;2.88;;
41923;SDS011;27613;48.116;11.656;2022-09-29T04:41:09;3.50;;;2.75;;
41923;SDS011;27613;48.116;11.656;2022-09-29T04:43:35;4.13;;;2.55;;
41923;SDS011;27613;48.116;11.656;2022-09-29T04:46:01;3.30;;;2.63;;
41923;SDS011;27613;48.116;11.656;2022-09-29T04:48:28;3.60;;;2.92;;
41923;SDS011;27613;48.116;11.656;2022-09-29T04:50:54;3.20;;;2.50;;
41923;SDS011;27613;48.116;11.656;2022-09-29T04:53:19;3.50;;;2.45;;
41923;SDS011;27613;48.116;11.656;2022-09-29T04:55:45;5.65;;;2.47;;
41923;SDS011;27613;48.116;11.656;2022-09-29T04:58:10;8.90;;;2.72;;
41923;SDS011;27613;48.116;11.656;2022-09-29T05:00:36;3.53;;;2.42;;
41923;SDS011;27613;48.116;11.656;2022-09-29T05:03:01;6.82;;;2.72;;
41923;SDS011;27613;48.116;11.656;2022-09-29T05:05:27;4.45;;;2.30;;
41923;SDS011;27613;48.116;11.656;2022-09-29T05:07:53;3.53;;;2.80;;
41923;SDS011;27613;48.116;11.656;2022-09-29T05:10:18;3.75;;;2.95;;
41923;SDS011;27613;48.116;11.656;2022-09-29T05:12:48;3.15;;;2.35;;
41923;SDS011;27613;48.116;11.656;2022-09-29T05:15:14;3.58;;;2.63;;
41923;SDS011;27613;48.116;11.656;2022-09-29T05:17:41;6.10;;;3.28;;
41923;SDS011;27613;48.116;11.656;2022-09-29T05:20:07;4.72;;;2.80;;
41923;SDS011;27613;48.116;11.656;2022-09-29T05:22:33;3.28;;;2.70;;
41923;SDS011;27613;48.116;11.656;2022-09-29T05:24:59;3.22;;;2.70;;
41923;SDS011;27613;48.116;11.656;2022-09-29T05:27:24;3.08;;;2.70;;
41923;SDS011;27613;48.116;11.656;2022-09-29T05:29:50;5.93;;;3.08;;
41923;SDS011;27613;48.116;11.656;2022-09-29T05:32:15;3.70;;;2.80;;
41923;SDS011;27613;48.116;11.656;2022-09-29T05:34:41;5.45;;;3.10;;
41923;SDS011;27613;48.116;11.656;2022-09-29T05:37:07;3.83;;;2.70;;
41923;SDS011;27613;48.116;11.656;2022-09-29T05:39:33;4.32;;;2.83;;
41923;SDS011;27613;48.116;11.656;2022-09-29T05:42:01;4.28;;;2.80;;
41923;SDS011;27613;48.116;11.656;2022-09-29T05:44:27;3.75;;;3.10;;
41923;SDS011;27613;48.116;11.656;2022-09-29T05:46:53;5.45;;;3.90;;
41923;SDS011;27613;48.116;11.656;2022-09-29T05:49:19;5.20;;;3.15;;
41923;SDS011;27613;48.116;11.656;2022-09-29T05:51:45;3.80;;;3.13;;
41923;SDS011;27613;48.116;11.656;2022-09-29T05:54:10;5.70;;;3.28;;
41923;SDS011;27613;48.116;11.656;2022-09-29T05:56:36;4.05;;;3.35;;
41923;SDS011;27613;48.116;11.656;2022-09-29T05:59:01;6.97;;;3.78;;
41923;SDS011;27613;48.116;11.656;2022-09-29T06:01:27;6.03;;;3.42;;
41923;SDS011;27613;48.116;11.656;2022-09-29T06:03:53;7.43;;;3.00;;
41923;SDS011;27613;48.116;11.656;2022-09-29T06:06:21;6.25;;;4.35;;
41923;SDS011;27613;48.116;11.656;2022-09-29T06:08:48;6.50;;;3.28;;
41923;SDS011;27613;48.116;11.656;2022-09-29T06:11:17;5.88;;;3.60;;
41923;SDS011;27613;48.116;11.656;2022-09-29T06:13:49;5.43;;;3.92;;
41923;SDS011;27613;48.116;11.656;2022-09-29T06:16:16;6.75;;;4.10;;
41923;SDS011;27613;48.116;11.656;2022-09-29T06:18:44;6.30;;;4.10;;
41923;SDS011;27613;48.116;11.656;2022-09-29T06:21:11;6.10;;;4.25;;
41923;SDS011;27613;48.116;11.656;2022-09-29T06:23:38;4.90;;;3.15;;
41923;SDS011;27613;48.116;11.656;2022-09-29T06:26:05;4.30;;;3.05;;
41923;SDS011;27613;48.116;11.656;2022-09-29T06:28:33;4.03;;;3.13;;
41923;SDS011;27613;48.116;11.656;2022-09-29T06:31:05;4.40;;;2.72;;
41923;SDS011;27613;48.116;11.656;2022-09-29T06:33:33;3.85;;;2.90;;
41923;SDS011;27613;48.116;11.656;2022-09-29T06:36:00;3.65;;;2.53;;
41923;SDS011;27613;48.116;11.656;2022-09-29T06:39:09;4.10;;;2.42;;
41923;SDS011;27613;48.116;11.656;2022-09-29T06:41:36;3.67;;;2.53;;
41923;SDS011;27613;48.116;11.656;2022-09-29T06:44:03;4.80;;;2.28;;
41923;SDS011;27613;48.116;11.656;2022-09-29T06:46:29;2.67;;;1.90;;
41923;SDS011;27613;48.116;11.656;2022-09-29T06:48:54;3.88;;;2.22;;
41923;SDS011;27613;48.116;11.656;2022-09-29T06:51:20;2.47;;;1.92;;
41923;SDS011;27613;48.116;11.656;2022-09-29T06:53:49;2.08;;;1.63;;
41923;SDS011;27613;48.116;11.656;2022-09-29T06:56:15;1.75;;;1.50;;
41923;SDS011;27613;48.116;11.656;2022-09-29T06:58:42;2.72;;;2.00;;
41923;SDS011;27613;48.116;11.656;2022-09-29T07:01:09;2.10;;;1.63;;
41923;SDS011;27613;48.116;11.656;2022-09-29T07:03:35;1.73;;;1.50;;
41923;SDS011;27613;48.116;11.656;2022-09-29T07:06:01;2.53;;;1.83;;
41923;SDS011;27613;48.116;11.656;2022-09-29T07:08:28;1.98;;;1.52;;
41923;SDS011;27613;48.116;11.656;2022-09-29T07:10:53;2.20;;;1.52;;
41923;SDS011;27613;48.116;11.656;2022-09-29T07:13:19;3.85;;;1.88;;
41923;SDS011;27613;48.116;11.656;2022-09-29T07:15:46;3.53;;;1.17;;
41923;SDS011;27613;48.116;11.656;2022-09-29T07:18:12;2.30;;;1.40;;
41923;SDS011;27613;48.116;11.656;2022-09-29T07:20:37;2.95;;;1.25;;
41923;SDS011;27613;48.116;11.656;2022-09-29T07:23:04;1.42;;;1.20;;
41923;SDS011;27613;48.116;11.656;2022-09-29T07:25:32;1.52;;;1.33;;
41923;SDS011;27613;48.116;11.656;2022-09-29T07:27:58;9.43;;;1.52;;
41923;SDS011;27613;48.116;11.656;2022-09-29T07:30:24;2.15;;;1.50;;
41923;SDS011;27613;48.116;11.656;2022-09-29T07:32:51;2.80;;;1.50;;
41923;SDS011;27613;48.116;11.656;2022-09-29T07:35:18;3.80;;;1.40;;
41923;SDS011;27613;48.116;11.656;2022-09-29T07:37:49;1.98;;;1.48;;
41923;SDS011;27613;48.116;11.656;2022-09-29T07:40:16;3.03;;;1.30;;
41923;SDS011;27613;48.116;11.656;2022-09-29T07:42:41;1.17;;;1.08;;
41923;SDS011;27613;48.116;11.656;2022-09-29T07:45:07;2.08;;;1.10;;
41923;SDS011;27613;48.116;11.656;2022-09-29T07:47:33;3.17;;;1.02;;
41923;SDS011;27613;48.116;11.656;2022-09-29T07:49:58;1.35;;;1.10;;
41923;SDS011;27613;48.116;11.656;2022-09-29T07:52:24;1.90;;;1.00;;
41923;SDS011;27613;48.116;11.656;2022-09-29T07:54:49;2.05;;;1.10;;
41923;SDS011;27613;48.116;11.656;2022-09-29T07:57:15;1.33;;;0.90;;
41923;SDS011;27613;48.116;11.656;2022-09-29T07:59:41;3.03;;;1.10;;
41923;SDS011;27613;48.116;11.656;2022-09-29T08:02:08;2.28;;;1.35;;
41923;SDS011;27613;48.116;11.656;2022-09-29T08:04:33;3.28;;;1.70;;
41923;SDS011;27613;48.116;11.656;2022-09-29T08:06:59;2.20;;;1.15;;
41923;SDS011;27613;48.116;11.656;2022-09-29T08:09:24;2.33;;;1.23;;
41923;SDS011;27613;48.116;11.656;2022-09-29T08:11:50;1.00;;;0.80;;
41923;SDS011;27613;48.116;11.656;2022-09-29T08:14:15;1.60;;;1.05;;
41923;SDS011;27613;48.116;11.656;2022-09-29T08:16:41;1.35;;;1.10;;
41923;SDS011;27613;48.116;11.656;2022-09-29T08:19:06;1.65;;;1.00;;
41923;SDS011;27613;48.116;11.656;2022-09-29T08:21:32;2.25;;;1.15;;
41923;SDS011;27613;48.116;11.656;2022-09-29T08:24:01;2.22;;;1.40;;
41923;SDS011;27613;48.116;11.656;2022-09-29T08:26:28;2.22;;;1.30;;
41923;SDS011;27613;48.116;11.656;2022-09-29T08:28:56;2.10;;;0.80;;
41923;SDS011;27613;48.116;11.656;2022-09-29T08:31:22;1.45;;;1.08;;
41923;SDS011;27613;48.116;11.656;2022-09-29T08:33:49;2.15;;;1.20;;
41923;SDS011;27613;48.116;11.656;2022-09-29T08:36:16;2.45;;;0.85;;
41923;SDS011;27613;48.116;11.656;2022-09-29T08:38:47;2.35;;;0.93;;
41923;SDS011;27613;48.116;11.656;2022-09-29T08:41:24;0.95;;;0.80;;
41923;SDS011;27613;48.116;11.656;2022-09-29T08:43:53;1.00;;;0.60;;
41923;SDS011;27613;48.116;11.656;2022-09-29T08:46:28;1.40;;;1.00;;
41923;SDS011;27613;48.116;11.656;2022-09-29T08:49:10;1.52;;;0.90;;
41923;SDS011;27613;48.116;11.656;2022-09-29T08:51:46;1.27;;;0.70;;
41923;SDS011;27613;48.116;11.656;2022-09-29T08:54:21;0.82;;;0.60;;
41923;SDS011;27613;48.116;11.656;2022-09-29T08:56:49;0.73;;;0.70;;
41923;SDS011;27613;48.116;11.656;2022-09-29T08:59:14;1.38;;;1.00;;
41923;SDS011;27613;48.116;11.656;2022-09-29T09:07:08;2.67;;;0.98;;
41923;SDS011;27613;48.116;11.656;2022-09-29T09:09:54;1.52;;;0.82;;
41923;SDS011;27613;48.116;11.656;2022-09-29T09:12:41;0.73;;;0.60;;
41923;SDS011;27613;48.116;11.656;2022-09-29T09:23:21;2.13;;;0.95;;
41923;SDS011;27613;48.116;11.656;2022-09-29T09:25:54;6.10;;;1.67;;
41923;SDS011;27613;48.116;11.656;2022-09-29T09:28:29;2.78;;;1.65;;
41923;SDS011;27613;48.116;11.656;2022-09-29T09:31:00;4.25;;;1.42;;
41923;SDS011;27613;48.116;11.656;2022-09-29T09:33:32;21.17;;;3.10;;
41923;SDS011;27613;48.116;11.656;2022-09-29T09:36:10;17.48;;;2.47;;
41923;SDS011;27613;48.116;11.656;2022-09-29T09:41:11;3.67;;;1.48;;
41923;SDS011;27613;48.116;11.656;2022-09-29T09:43:46;3.50;;;1.38;;
41923;SDS011;27613;48.116;11.656;2022-09-29T09:46:19;2.67;;;1.63;;
41923;SDS011;27613;48.116;11.656;2022-09-29T09:51:42;2.10;;;1.17;;
41923;SDS011;27613;48.116;11.656;2022-09-29T09:54:34;2.38;;;1.35;;
41923;SDS011;27613;48.116;11.656;2022-09-29T09:57:12;4.30;;;1.88;;
41923;SDS011;27613;48.116;11.656;2022-09-29T10:00:04;2.83;;;1.17;;
41923;SDS011;27613;48.116;11.656;2022-09-29T10:02:46;1.52;;;0.90;;
41923;SDS011;27613;48.116;11.656;2022-09-29T10:05:20;1.35;;;0.73;;
41923;SDS011;27613;48.116;11.656;2022-09-29T10:07:50;1.13;;;0.57;;
41923;SDS011;27613;48.116;11.656;2022-09-29T10:10:20;1.17;;;0.60;;
41923;SDS011;27613;48.116;11.656;2022-09-29T10:13:00;0.63;;;0.57;;
41923;SDS011;27613;48.116;11.656;2022-09-29T10:15:38;0.82;;;0.65;;
41923;SDS011;27613;48.116;11.656;2022-09-29T10:20:52;1.77;;;0.50;;
41923;SDS011;27613;48.116;11.656;2022-09-29T10:23:28;0.80;;;0.52;;
41923;SDS011;27613;48.116;11.656;2022-09-29T10:29:15;0.90;;;0.52;;
41923;SDS011;27613;48.116;11.656;2022-09-29T10:31:28;0.82;;;0.60;;
41923;SDS011;27613;48.116;11.656;2022-09-29T10:36:49;1.17;;;0.80;;
41923;SDS011;27613;48.116;11.656;2022-09-29T10:42:35;1.13;;;0.75;;
41923;SDS011;27613;48.116;11.656;2022-09-29T10:47:37;0.75;;;0.55;;
41923;SDS011;27613;48.116;11.656;2022-09-29T10:50:17;2.33;;;1.08;;
41923;SDS011;27613;48.116;11.656;2022-09-29T10:52:49;0.73;;;0.60;;
41923;SDS011;27613;48.116;11.656;2022-09-29T10:55:26;1.05;;;0.60;;
41923;SDS011;27613;48.116;11.656;2022-09-29T10:57:57;1.70;;;1.10;;
41923;SDS011;27613;48.116;11.656;2022-09-29T11:00:37;2.50;;;1.00;;
41923;SDS011;27613;48.116;11.656;2022-09-29T11:03:05;0.80;;;0.80;;
41923;SDS011;27613;48.116;11.656;2022-09-29T11:05:45;1.60;;;0.77;;
41923;SDS011;27613;48.116;11.656;2022-09-29T11:08:18;3.78;;;0.70;;
41923;SDS011;27613;48.116;11.656;2022-09-29T11:10:49;1.42;;;0.80;;
41923;SDS011;27613;48.116;11.656;2022-09-29T11:13:42;1.20;;;0.75;;
41923;SDS011;27613;48.116;11.656;2022-09-29T11:16:14;0.95;;;0.70;;
41923;SDS011;27613;48.116;11.656;2022-09-29T11:18:48;1.00;;;0.60;;
41923;SDS011;27613;48.116;11.656;2022-09-29T11:21:34;0.80;;;0.43;;
41923;SDS011;27613;48.116;11.656;2022-09-29T11:24:36;1.63;;;0.68;;
41923;SDS011;27613;48.116;11.656;2022-09-29T11:27:32;2.42;;;1.15;;
41923;SDS011;27613;48.116;11.656;2022-09-29T11:30:05;2.03;;;1.10;;
41923;SDS011;27613;48.116;11.656;2022-09-29T11:38:10;1.42;;;0.73;;
41923;SDS011;27613;48.116;11.656;2022-09-29T11:54:57;1.40;;;0.85;;
41923;SDS011;27613;48.116;11.656;2022-09-29T12:06:18;0.90;;;0.70;;
41923;SDS011;27613;48.116;11.656;2022-09-29T12:09:01;1.05;;;0.60;;
41923;SDS011;27613;48.116;11.656;2022-09-29T12:14:37;2.08;;;0.93;;
41923;SDS011;27613;48.116;11.656;2022-09-29T12:17:24;1.13;;;0.70;;
41923;SDS011;27613;48.116;11.656;2022-09-29T12:19:57;1.52;;;1.00;;
41923;SDS011;27613;48.116;11.656;2022-09-29T12:22:31;1.17;;;0.77;;
41923;SDS011;27613;48.116;11.656;2022-09-29T12:24:57;6.15;;;1.38;;
41923;SDS011;27613;48.116;11.656;2022-09-29T12:27:38;2.35;;;0.98;;
41923;SDS011;27613;48.116;11.656;2022-09-29T12:32:46;2.42;;;1.02;;
41923;SDS011;27613;48.116;11.656;2022-09-29T12:35:22;2.13;;;1.00;;
41923;SDS011;27613;48.116;11.656;2022-09-29T12:38:07;1.33;;;0.93;;
41923;SDS011;27613;48.116;11.656;2022-09-29T12:40:45;1.13;;;0.93;;
41923;SDS011;27613;48.116;11.656;2022-09-29T12:43:45;1.55;;;0.98;;
41923;SDS011;27613;48.116;11.656;2022-09-29T12:49:02;1.83;;;1.20;;
41923;SDS011;27613;48.116;11.656;2022-09-29T12:51:49;2.58;;;1.30;;
41923;SDS011;27613;48.116;11.656;2022-09-29T12:56:51;2.15;;;1.20;;
41923;SDS011;27613;48.116;11.656;2022-09-29T12:59:36;2.08;;;1.23;;
41923;SDS011;27613;48.116;11.656;2022-09-29T13:04:52;2.28;;;1.67;;
41923;SDS011;27613;48.116;11.656;2022-09-29T13:07:50;2.88;;;1.60;;
41923;SDS011;27613;48.116;11.656;2022-09-29T13:29:00;3.28;;;1.92;;
41923;SDS011;27613;48.116;11.656;2022-09-29T13:31:28;3.70;;;1.75;;
41923;SDS011;27613;48.116;11.656;2022-09-29T13:33:57;2.88;;;1.85;;
41923;SDS011;27613;48.116;11.656;2022-09-29T13:38:59;2.78;;;2.00;;
41923;SDS011;27613;48.116;11.656;2022-09-29T13:49:01;2.95;;;1.83;;
41923;SDS011;27613;48.116;11.656;2022-09-29T13:51:39;3.33;;;1.92;;
41923;SDS011;27613;48.116;11.656;2022-09-29T13:56:51;3.03;;;1.88;;
41923;SDS011;27613;48.116;11.656;2022-09-29T13:59:25;4.25;;;2.45;;
41923;SDS011;27613;48.116;11.656;2022-09-29T14:01:53;5.70;;;3.75;;
41923;SDS011;27613;48.116;11.656;2022-09-29T14:07:33;5.15;;;3.05;;
41923;SDS011;27613;48.116;11.656;2022-09-29T14:10:06;4.32;;;2.60;;
41923;SDS011;27613;48.116;11.656;2022-09-29T14:15:44;4.97;;;2.30;;
41923;SDS011;27613;48.116;11.656;2022-09-29T14:18:20;6.18;;;2.50;;
41923;SDS011;27613;48.116;11.656;2022-09-29T14:21:00;4.23;;;2.47;;
41923;SDS011;27613;48.116;11.656;2022-09-29T14:23:45;4.15;;;2.63;;
41923;SDS011;27613;48.116;11.656;2022-09-29T14:29:15;3.50;;;2.45;;
41923;SDS011;27613;48.116;11.656;2022-09-29T14:31:53;5.13;;;2.83;;
41923;SDS011;27613;48.116;11.656;2022-09-29T14:34:22;3.85;;;2.58;;
41923;SDS011;27613;48.116;11.656;2022-09-29T14:36:53;3.25;;;2.55;;
41923;SDS011;27613;48.116;11.656;2022-09-29T14:39:20;4.57;;;3.28;;
41923;SDS011;27613;48.116;11.656;2022-09-29T14:41:47;5.93;;;2.97;;
41923;SDS011;27613;48.116;11.656;2022-09-29T14:44:27;4.10;;;2.60;;
41923;SDS011;27613;48.116;11.656;2022-09-29T14:50:31;4.60;;;3.05;;
41923;SDS011;27613;48.116;11.656;2022-09-29T14:58:51;4.88;;;3.38;;
41923;SDS011;27613;48.116;11.656;2022-09-29T15:01:34;7.57;;;4.38;;
41923;SDS011;27613;48.116;11.656;2022-09-29T15:04:18;6.32;;;3.58;;
41923;SDS011;27613;48.116;11.656;2022-09-29T15:06:44;6.85;;;3.25;;
41923;SDS011;27613;48.116;11.656;2022-09-29T15:09:15;6.47;;;3.47;;
41923;SDS011;27613;48.116;11.656;2022-09-29T15:11:44;4.40;;;3.65;;
41923;SDS011;27613;48.116;11.656;2022-09-29T15:14:21;5.30;;;3.70;;
41923;SDS011;27613;48.116;11.656;2022-09-29T15:16:55;3.17;;;2.67;;
41923;SDS011;27613;48.116;11.656;2022-09-29T15:25:42;10.03;;;5.80;;
41923;SDS011;27613;48.116;11.656;2022-09-29T15:30:52;4.47;;;3.08;;
41923;SDS011;27613;48.116;11.656;2022-09-29T15:33:22;4.35;;;3.33;;
41923;SDS011;27613;48.116;11.656;2022-09-29T15:35:50;5.60;;;3.13;;
41923;SDS011;27613;48.116;11.656;2022-09-29T15:40:52;4.38;;;2.90;;
41923;SDS011;27613;48.116;11.656;2022-09-29T15:43:29;4.25;;;3.00;;
41923;SDS011;27613;48.116;11.656;2022-09-29T15:46:12;4.10;;;3.17;;
41923;SDS011;27613;48.116;11.656;2022-09-29T15:54:20;6.40;;;4.50;;
41923;SDS011;27613;48.116;11.656;2022-09-29T15:56:47;6.60;;;4.22;;
41923;SDS011;27613;48.116;11.656;2022-09-29T15:59:39;6.30;;;4.22;;
41923;SDS011;27613;48.116;11.656;2022-09-29T16:02:30;4.38;;;3.75;;
41923;SDS011;27613;48.116;11.656;2022-09-29T16:05:09;7.93;;;4.50;;
41923;SDS011;27613;48.116;11.656;2022-09-29T16:07:39;6.93;;;3.97;;
41923;SDS011;27613;48.116;11.656;2022-09-29T16:10:16;4.57;;;3.30;;
41923;SDS011;27613;48.116;11.656;2022-09-29T16:12:56;4.75;;;3.33;;
41923;SDS011;27613;48.116;11.656;2022-09-29T16:15:27;4.28;;;3.45;;
41923;SDS011;27613;48.116;11.656;2022-09-29T16:18:03;4.60;;;3.40;;
41923;SDS011;27613;48.116;11.656;2022-09-29T16:20:33;6.10;;;3.80;;
41923;SDS011;27613;48.116;11.656;2022-09-29T16:23:33;4.70;;;2.92;;
41923;SDS011;27613;48.116;11.656;2022-09-29T16:28:37;3.63;;;2.80;;
41923;SDS011;27613;48.116;11.656;2022-09-29T16:31:05;6.70;;;3.63;;
41923;SDS011;27613;48.116;11.656;2022-09-29T16:33:42;3.90;;;3.17;;
41923;SDS011;27613;48.116;11.656;2022-09-29T16:36:12;6.25;;;4.55;;
41923;SDS011;27613;48.116;11.656;2022-09-29T16:38:48;9.70;;;6.13;;
41923;SDS011;27613;48.116;11.656;2022-09-29T16:43:51;5.43;;;4.53;;
41923;SDS011;27613;48.116;11.656;2022-09-29T16:46:27;9.50;;;6.75;;
41923;SDS011;27613;48.116;11.656;2022-09-29T16:48:54;10.20;;;7.10;;
41923;SDS011;27613;48.116;11.656;2022-09-29T16:51:20;5.82;;;5.00;;
41923;SDS011;27613;48.116;11.656;2022-09-29T16:53:47;11.00;;;6.18;;
41923;SDS011;27613;48.116;11.656;2022-09-29T16:58:45;7.35;;;5.05;;
41923;SDS011;27613;48.116;11.656;2022-09-29T17:01:35;26.90;;;17.92;;
41923;SDS011;27613;48.116;11.656;2022-09-29T17:04:01;26.33;;;19.83;;
41923;SDS011;27613;48.116;11.656;2022-09-29T17:06:27;20.98;;;13.30;;
41923;SDS011;27613;48.116;11.656;2022-09-29T17:08:53;15.80;;;10.88;;
41923;SDS011;27613;48.116;11.656;2022-09-29T17:11:19;14.70;;;13.15;;
41923;SDS011;27613;48.116;11.656;2022-09-29T17:13:44;11.15;;;6.97;;
41923;SDS011;27613;48.116;11.656;2022-09-29T17:16:10;9.63;;;6.63;;
41923;SDS011;27613;48.116;11.656;2022-09-29T17:18:44;6.45;;;4.50;;
41923;SDS011;27613;48.116;11.656;2022-09-29T17:21:14;7.18;;;4.97;;
41923;SDS011;27613;48.116;11.656;2022-09-29T17:23:39;9.55;;;7.05;;
41923;SDS011;27613;48.116;11.656;2022-09-29T17:26:07;11.25;;;8.88;;
41923;SDS011;27613;48.116;11.656;2022-09-29T17:29:01;11.50;;;9.48;;
41923;SDS011;27613;48.116;11.656;2022-09-29T17:31:27;12.18;;;9.27;;
41923;SDS011;27613;48.116;11.656;2022-09-29T17:33:53;14.00;;;9.35;;
41923;SDS011;27613;48.116;11.656;2022-09-29T17:36:18;17.23;;;9.27;;
41923;SDS011;27613;48.116;11.656;2022-09-29T17:38:45;10.90;;;9.38;;
41923;SDS011;27613;48.116;11.656;2022-09-29T17:41:12;17.23;;;13.70;;
41923;SDS011;27613;48.116;11.656;2022-09-29T17:43:40;19.38;;;14.88;;
41923;SDS011;27613;48.116;11.656;2022-09-29T17:46:11;26.70;;;14.45;;
41923;SDS011;27613;48.116;11.656;2022-09-29T17:48:38;18.77;;;13.63;;